createdAt,value
2019-04-28T00:00:46.570Z,3.15
2019-04-28T00:02:01.447Z,1.42
2019-04-28T00:03:14.638Z,2.50
2019-04-28T00:04:27.726Z,2.92
2019-04-28T00:05:41.570Z,0.95
2019-04-28T00:06:54.749Z,0.90
2019-04-28T00:08:07.907Z,1.37
2019-04-28T00:09:23.037Z,1.20
2019-04-28T00:10:36.045Z,0.80
2019-04-28T00:11:49.112Z,1.45
2019-04-28T00:13:02.212Z,1.40
2019-04-28T00:14:15.429Z,1.40
2019-04-28T00:15:28.567Z,1.60
2019-04-28T00:16:41.640Z,0.93
2019-04-28T00:17:55.173Z,1.92
2019-04-28T00:19:11.051Z,1.52
2019-04-28T00:20:25.889Z,2.47
2019-04-28T00:21:43.081Z,1.02
2019-04-28T00:22:57.833Z,1.75
2019-04-28T00:24:12.558Z,1.52
2019-04-28T00:25:27.280Z,1.50
2019-04-28T00:26:44.659Z,3.12
2019-04-28T00:27:57.733Z,1.77
2019-04-28T00:29:11.204Z,1.25
2019-04-28T00:30:24.388Z,0.90
2019-04-28T00:31:37.464Z,1.67
2019-04-28T00:32:51.875Z,1.45
2019-04-28T00:34:05.066Z,1.00
2019-04-28T00:35:18.164Z,1.10
2019-04-28T00:36:31.416Z,0.88
2019-04-28T00:37:44.596Z,1.92
2019-04-28T00:38:57.685Z,0.78
2019-04-28T00:40:11.182Z,0.78
2019-04-28T00:41:24.329Z,0.70
2019-04-28T00:42:37.400Z,1.37
2019-04-28T00:43:52.008Z,0.85
2019-04-28T00:45:07.912Z,1.92
2019-04-28T00:46:23.110Z,0.85
2019-04-28T00:47:36.179Z,3.25
2019-04-28T00:48:50.755Z,1.10
2019-04-28T00:50:04.952Z,3.33
2019-04-28T00:51:18.020Z,1.22
2019-04-28T00:52:32.009Z,1.65
2019-04-28T00:53:45.253Z,1.87
2019-04-28T00:54:58.324Z,0.98
2019-04-28T00:56:12.089Z,3.02
2019-04-28T00:57:25.251Z,2.58
2019-04-28T00:58:38.349Z,2.67
2019-04-28T00:59:57.553Z,1.65
2019-04-28T01:01:17.088Z,2.08
2019-04-28T01:02:37.589Z,2.10
2019-04-28T01:03:52.013Z,1.25
2019-04-28T01:05:06.210Z,1.77
2019-04-28T01:06:19.284Z,1.57
2019-04-28T01:07:33.075Z,4.85
2019-04-28T01:08:46.312Z,1.77
2019-04-28T01:10:01.279Z,1.70
2019-04-28T01:11:14.209Z,1.12
2019-04-28T01:12:27.350Z,3.25
2019-04-28T01:13:41.960Z,1.60
2019-04-28T01:14:57.292Z,3.08
2019-04-28T01:16:20.736Z,3.00
2019-04-28T01:17:35.461Z,2.10
2019-04-28T01:18:50.925Z,1.60
2019-04-28T01:20:09.761Z,2.15
2019-04-28T01:21:24.670Z,2.70
2019-04-28T01:22:37.737Z,2.00
2019-04-28T01:23:50.820Z,2.08
2019-04-28T01:25:05.516Z,2.87
2019-04-28T01:26:20.019Z,3.55
2019-04-28T01:27:34.896Z,1.85
2019-04-28T01:28:49.632Z,3.77
2019-04-28T01:30:08.647Z,3.02
2019-04-28T01:31:24.092Z,3.17
2019-04-28T01:32:45.817Z,1.42
2019-04-28T01:34:06.591Z,2.42
2019-04-28T01:35:21.057Z,2.70
2019-04-28T01:36:35.685Z,3.75
2019-04-28T01:37:50.526Z,3.67
2019-04-28T01:39:05.383Z,2.90
2019-04-28T01:40:20.316Z,1.95
2019-04-28T01:41:33.318Z,2.25
2019-04-28T01:42:46.457Z,3.83
2019-04-28T01:44:00.181Z,2.90
2019-04-28T01:45:13.370Z,1.15
2019-04-28T01:46:26.452Z,5.08
2019-04-28T01:47:40.490Z,1.37
2019-04-28T01:48:53.676Z,2.42
2019-04-28T01:50:06.760Z,1.77
2019-04-28T01:51:20.888Z,1.40
2019-04-28T01:52:34.011Z,2.85
2019-04-28T01:53:47.083Z,1.72
2019-04-28T01:55:00.556Z,1.42
2019-04-28T01:56:13.722Z,2.87
2019-04-28T01:57:26.829Z,1.80
2019-04-28T01:58:40.354Z,2.55
2019-04-28T01:59:53.558Z,1.20
2019-04-28T02:01:06.624Z,1.62
2019-04-28T02:02:19.984Z,1.45
2019-04-28T02:03:33.161Z,1.80
2019-04-28T02:04:46.233Z,2.45
2019-04-28T02:06:00.179Z,4.28
2019-04-28T02:07:13.465Z,1.57
2019-04-28T02:08:26.540Z,1.30
2019-04-28T02:09:39.723Z,1.75
2019-04-28T02:10:52.789Z,1.90
2019-04-28T02:12:05.938Z,2.55
2019-04-28T02:13:19.870Z,5.25
2019-04-28T02:14:33.105Z,0.90
2019-04-28T02:15:46.676Z,2.70
2019-04-28T02:17:00.545Z,1.37
2019-04-28T02:18:13.700Z,1.10
2019-04-28T02:19:26.781Z,2.42
2019-04-28T02:20:41.495Z,3.25
2019-04-28T02:21:59.530Z,1.37
2019-04-28T02:23:19.768Z,1.67
2019-04-28T02:24:34.560Z,2.02
2019-04-28T02:25:47.635Z,0.88
2019-04-28T02:27:01.019Z,1.55
2019-04-28T02:28:14.261Z,1.45
2019-04-28T02:29:27.786Z,1.35
2019-04-28T02:30:48.645Z,1.42
2019-04-28T02:31:55.652Z,4.58
2019-04-28T02:33:11.015Z,1.10
2019-04-28T02:34:23.554Z,1.60
2019-04-28T02:35:36.659Z,2.05
2019-04-28T02:36:50.598Z,0.93
2019-04-28T02:38:04.849Z,1.10
2019-04-28T02:39:20.542Z,1.05
2019-04-28T02:40:34.255Z,0.45
2019-04-28T02:41:47.388Z,1.62
2019-04-28T02:43:01.241Z,0.60
2019-04-28T02:44:14.528Z,0.78
2019-04-28T02:45:27.620Z,1.32
2019-04-28T02:46:41.737Z,1.87
2019-04-28T02:47:56.477Z,0.93
2019-04-28T02:49:11.207Z,0.62
2019-04-28T02:50:25.919Z,0.85
2019-04-28T02:51:52.789Z,1.22
2019-04-28T02:53:07.500Z,1.98
2019-04-28T02:54:20.581Z,0.72
2019-04-28T02:55:33.656Z,0.93
2019-04-28T02:56:46.767Z,2.83
2019-04-28T02:58:01.382Z,1.47
2019-04-28T02:59:14.722Z,0.78
2019-04-28T03:00:27.788Z,0.90
2019-04-28T03:01:41.045Z,0.93
2019-04-28T03:02:54.129Z,0.50
2019-04-28T03:04:10.312Z,1.05
2019-04-28T03:05:24.504Z,1.57
2019-04-28T03:06:37.590Z,1.67
2019-04-28T03:07:51.742Z,1.82
2019-04-28T03:09:07.013Z,0.85
2019-04-28T03:10:21.377Z,1.02
2019-04-28T03:11:34.848Z,1.72
2019-04-28T03:12:47.920Z,3.67
2019-04-28T03:14:01.230Z,1.07
2019-04-28T03:15:14.314Z,3.33
2019-04-28T03:16:27.401Z,2.58
2019-04-28T03:17:40.964Z,2.02
2019-04-28T03:18:54.977Z,2.10
2019-04-28T03:20:10.796Z,2.08
2019-04-28T03:21:22.851Z,2.33
2019-04-28T03:22:35.934Z,2.40
2019-04-28T03:23:51.313Z,0.72
2019-04-28T03:25:06.424Z,2.05
2019-04-28T03:26:26.978Z,0.68
2019-04-28T03:27:56.892Z,3.00
2019-04-28T03:29:14.360Z,0.80
2019-04-28T03:30:37.982Z,0.90
2019-04-28T03:32:18.484Z,1.32
2019-04-28T03:33:25.323Z,0.90
2019-04-28T03:34:43.851Z,0.57
2019-04-28T03:35:57.875Z,1.15
2019-04-28T03:37:11.445Z,1.95
2019-04-28T03:38:24.610Z,3.40
2019-04-28T03:39:40.382Z,0.85
2019-04-28T03:40:52.513Z,1.00
2019-04-28T03:42:05.601Z,1.62
2019-04-28T03:43:21.152Z,1.17
2019-04-28T03:44:33.967Z,1.30
2019-04-28T03:46:03.439Z,2.10
2019-04-28T03:47:16.825Z,3.70
2019-04-28T03:48:30.833Z,2.87
2019-04-28T03:49:44.707Z,2.25
2019-04-28T03:50:57.787Z,2.52
2019-04-28T03:52:10.995Z,3.30
2019-04-28T03:53:24.110Z,1.37
2019-04-28T03:54:37.187Z,1.25
2019-04-28T03:55:51.233Z,4.22
2019-04-28T03:57:04.646Z,3.35
2019-04-28T03:58:21.779Z,2.98
2019-04-28T03:59:32.505Z,1.12
2019-04-28T04:00:45.575Z,2.98
2019-04-28T04:02:02.357Z,1.05
2019-04-28T04:03:13.474Z,3.30
2019-04-28T04:04:26.548Z,2.25
2019-04-28T04:05:40.745Z,0.95
2019-04-28T04:06:53.935Z,1.32
2019-04-28T04:08:07.039Z,2.60
2019-04-28T04:09:21.186Z,2.42
2019-04-28T04:10:36.550Z,2.80
2019-04-28T04:12:06.433Z,3.42
2019-04-28T04:13:21.183Z,1.35
2019-04-28T04:14:45.145Z,3.10
2019-04-28T04:16:03.135Z,3.10
2019-04-28T04:17:23.646Z,1.42
2019-04-28T04:18:40.728Z,0.57
2019-04-28T04:19:53.188Z,4.97
2019-04-28T04:21:06.268Z,1.87
2019-04-28T04:22:21.326Z,2.10
2019-04-28T04:23:34.145Z,2.35
2019-04-28T04:24:50.009Z,1.42
2019-04-28T04:26:02.276Z,2.67
2019-04-28T04:27:15.421Z,1.37
2019-04-28T04:28:30.426Z,3.95
2019-04-28T04:29:43.760Z,0.85
2019-04-28T04:30:56.959Z,1.45
2019-04-28T04:32:20.537Z,1.80
2019-04-28T04:33:24.826Z,3.80
2019-04-28T04:34:40.525Z,3.20
2019-04-28T04:35:52.684Z,5.22
2019-04-28T04:37:05.790Z,1.35
2019-04-28T04:38:21.492Z,6.70
2019-04-28T04:39:33.650Z,2.10
2019-04-28T04:40:46.721Z,2.95
2019-04-28T04:42:00.653Z,1.87
2019-04-28T04:43:13.867Z,4.25
2019-04-28T04:44:26.941Z,2.70
2019-04-28T04:45:40.640Z,1.45
2019-04-28T04:46:55.504Z,1.85
2019-04-28T04:48:11.355Z,2.60
2019-04-28T04:49:23.545Z,3.75
2019-04-28T04:50:36.616Z,1.27
2019-04-28T04:51:50.899Z,1.55
2019-04-28T04:53:04.224Z,3.22
2019-04-28T04:54:17.293Z,6.50
2019-04-28T04:55:30.869Z,3.50
2019-04-28T04:56:43.994Z,4.75
2019-04-28T04:57:57.093Z,3.80
2019-04-28T04:59:10.425Z,1.87
2019-04-28T05:00:25.229Z,2.20
2019-04-28T05:01:45.615Z,2.98
2019-04-28T05:03:10.570Z,3.60
2019-04-28T05:04:25.416Z,3.92
2019-04-28T05:05:42.913Z,1.10
2019-04-28T05:06:55.980Z,1.60
2019-04-28T05:08:10.511Z,3.15
2019-04-28T05:09:23.852Z,2.37
2019-04-28T05:10:36.925Z,2.98
2019-04-28T05:11:50.132Z,3.77
2019-04-28T05:13:04.479Z,2.40
2019-04-28T05:14:19.639Z,3.17
2019-04-28T05:15:32.376Z,1.30
2019-04-28T05:16:45.455Z,3.62
2019-04-28T05:18:00.220Z,2.35
2019-04-28T05:19:14.061Z,2.58
2019-04-28T05:20:27.135Z,2.98
2019-04-28T05:21:40.562Z,5.30
2019-04-28T05:23:02.186Z,1.22
2019-04-28T05:24:22.820Z,3.27
2019-04-28T05:25:39.468Z,1.95
2019-04-28T05:26:52.320Z,5.58
2019-04-28T05:28:05.409Z,6.10
2019-04-28T05:29:19.977Z,3.35
2019-04-28T05:30:34.989Z,2.12
2019-04-28T05:31:50.215Z,4.58
2019-04-28T05:33:03.499Z,2.17
2019-04-28T05:34:16.576Z,5.15
2019-04-28T05:35:29.655Z,3.02
2019-04-28T05:36:44.613Z,1.98
2019-04-28T05:37:57.588Z,3.95
2019-04-28T05:39:10.689Z,0.98
2019-04-28T05:40:23.755Z,3.25
2019-04-28T05:41:36.823Z,2.85
2019-04-28T05:43:00.707Z,6.17
2019-04-28T05:44:13.607Z,4.45
2019-04-28T05:45:27.464Z,2.37
2019-04-28T05:46:40.543Z,3.75
2019-04-28T05:47:53.620Z,3.80
2019-04-28T05:49:11.377Z,7.15
2019-04-28T05:50:26.108Z,4.08
2019-04-28T05:51:41.404Z,5.42
2019-04-28T05:52:56.117Z,1.10
2019-04-28T05:54:29.916Z,2.47
2019-04-28T05:56:00.165Z,2.00
2019-04-28T05:57:21.169Z,3.45
2019-04-28T05:58:41.839Z,3.77
2019-04-28T06:00:12.578Z,0.98
2019-04-28T06:01:33.089Z,3.23
2019-04-28T06:02:56.283Z,4.33
2019-04-28T06:04:02.751Z,2.77
2019-04-28T06:05:15.832Z,2.92
2019-04-28T06:06:30.564Z,3.12
2019-04-28T06:07:45.276Z,4.40
2019-04-28T06:09:05.428Z,3.05
2019-04-28T06:10:20.155Z,3.22
2019-04-28T06:11:34.754Z,2.50
2019-04-28T06:12:49.497Z,5.25
2019-04-28T06:14:02.757Z,6.33
2019-04-28T06:15:15.833Z,3.60
2019-04-28T06:16:30.441Z,4.75
2019-04-28T06:17:43.755Z,3.02
2019-04-28T06:18:59.831Z,4.85
2019-04-28T06:20:12.881Z,5.28
2019-04-28T06:21:25.996Z,4.58
2019-04-28T06:22:40.709Z,6.85
2019-04-28T06:23:53.796Z,2.52
2019-04-28T06:25:06.876Z,3.72
2019-04-28T06:26:19.940Z,7.05
2019-04-28T06:27:33.028Z,3.67
2019-04-28T06:28:46.117Z,2.95
2019-04-28T06:29:59.192Z,4.35
2019-04-28T06:31:12.264Z,3.12
2019-04-28T06:32:25.301Z,3.22
2019-04-28T06:33:38.351Z,2.92
2019-04-28T06:34:51.437Z,5.33
2019-04-28T06:36:04.582Z,3.45
2019-04-28T06:37:17.912Z,4.50
2019-04-28T06:38:30.989Z,2.22
2019-04-28T06:39:44.080Z,4.25
2019-04-28T06:40:57.154Z,3.47
2019-04-28T06:42:10.232Z,3.65
2019-04-28T06:43:23.259Z,4.40
2019-04-28T06:44:36.272Z,1.35
2019-04-28T06:45:49.388Z,4.60
2019-04-28T06:47:02.462Z,3.72
2019-04-28T06:48:15.530Z,3.02
2019-04-28T06:49:28.609Z,3.15
2019-04-28T06:50:41.708Z,4.37
2019-04-28T06:51:54.789Z,6.85
2019-04-28T06:53:07.869Z,4.62
2019-04-28T06:54:21.101Z,3.83
2019-04-28T06:55:34.200Z,6.45
2019-04-28T06:56:47.528Z,4.40
2019-04-28T06:58:00.608Z,5.10
2019-04-28T06:59:13.687Z,4.15
2019-04-28T07:00:26.765Z,5.03
2019-04-28T07:01:39.865Z,4.65
2019-04-28T07:02:52.946Z,2.45
2019-04-28T07:04:06.017Z,4.78
2019-04-28T07:05:19.083Z,2.72
2019-04-28T07:06:32.227Z,2.05
2019-04-28T07:07:45.329Z,2.30
2019-04-28T07:08:58.343Z,2.77
2019-04-28T07:10:11.417Z,3.42
2019-04-28T07:11:24.587Z,3.17
2019-04-28T07:12:37.869Z,5.50
2019-04-28T07:13:51.031Z,2.90
2019-04-28T07:15:05.079Z,3.70
2019-04-28T07:16:18.497Z,3.65
2019-04-28T07:17:32.620Z,3.77
2019-04-28T07:18:45.695Z,2.62
2019-04-28T07:20:06.408Z,4.17
2019-04-28T07:21:29.976Z,2.55
2019-04-28T07:22:43.060Z,3.80
2019-04-28T07:23:56.176Z,5.22
2019-04-28T07:25:09.452Z,2.67
2019-04-28T07:26:22.666Z,4.85
2019-04-28T07:27:35.872Z,6.00
2019-04-28T07:28:49.079Z,3.90
2019-04-28T07:30:02.564Z,3.37
2019-04-28T07:31:15.784Z,3.30
2019-04-28T07:32:29.332Z,1.27
2019-04-28T07:33:42.441Z,2.35
2019-04-28T07:34:55.614Z,3.30
2019-04-28T07:36:08.907Z,5.00
2019-04-28T07:37:22.025Z,3.62
2019-04-28T07:38:36.759Z,2.90
2019-04-28T07:39:50.071Z,4.58
2019-04-28T07:41:03.341Z,3.55
2019-04-28T07:42:16.424Z,2.52
2019-04-28T07:43:30.778Z,1.82
2019-04-28T07:44:43.849Z,3.75
2019-04-28T07:45:56.940Z,3.65
2019-04-28T07:47:10.057Z,5.47
2019-04-28T07:48:23.130Z,4.42
2019-04-28T07:49:36.324Z,3.83
2019-04-28T07:50:49.401Z,2.35
2019-04-28T07:52:07.566Z,2.77
2019-04-28T07:53:22.256Z,2.65
2019-04-28T07:54:35.354Z,2.15
2019-04-28T07:55:48.552Z,3.98
2019-04-28T07:57:01.621Z,3.87
2019-04-28T07:58:14.664Z,3.83
2019-04-28T07:59:27.810Z,4.08
2019-04-28T08:00:41.392Z,6.55
2019-04-28T08:01:54.493Z,4.40
2019-04-28T08:03:07.925Z,6.08
2019-04-28T08:04:22.618Z,1.95
2019-04-28T08:05:36.747Z,3.25
2019-04-28T08:06:49.780Z,5.92
2019-04-28T08:08:02.824Z,2.35
2019-04-28T08:09:17.636Z,3.37
2019-04-28T08:10:30.669Z,2.27
2019-04-28T08:11:43.761Z,2.17
2019-04-28T08:12:56.901Z,5.42
2019-04-28T08:14:09.978Z,5.53
2019-04-28T08:15:23.333Z,2.40
2019-04-28T08:16:36.837Z,2.10
2019-04-28T08:17:50.037Z,6.72
2019-04-28T08:19:03.254Z,2.17
2019-04-28T08:20:16.304Z,4.05
2019-04-28T08:21:29.419Z,3.60
2019-04-28T08:22:42.497Z,2.80
2019-04-28T08:23:55.567Z,1.80
2019-04-28T08:25:10.243Z,3.62
2019-04-28T08:26:23.567Z,6.35
2019-04-28T08:27:36.820Z,2.33
2019-04-28T08:28:50.012Z,3.20
2019-04-28T08:30:03.236Z,4.35
2019-04-28T08:31:17.896Z,4.67
2019-04-28T08:32:41.613Z,4.33
2019-04-28T08:34:02.682Z,5.62
2019-04-28T08:35:11.143Z,7.37
2019-04-28T08:36:24.192Z,4.30
2019-04-28T08:37:37.379Z,1.15
2019-04-28T08:38:50.431Z,2.00
2019-04-28T08:40:04.800Z,4.53
2019-04-28T08:41:17.840Z,2.15
2019-04-28T08:42:30.888Z,2.60
2019-04-28T08:43:44.008Z,4.00
2019-04-28T08:44:57.064Z,2.60
2019-04-28T08:46:10.159Z,5.42
2019-04-28T08:47:23.228Z,2.25
2019-04-28T08:48:36.304Z,3.22
2019-04-28T08:49:49.396Z,2.65
2019-04-28T08:51:03.696Z,2.87
2019-04-28T08:52:16.774Z,3.90
2019-04-28T08:53:29.840Z,1.87
2019-04-28T08:54:42.941Z,2.42
2019-04-28T08:55:56.099Z,5.35
2019-04-28T08:57:09.245Z,5.08
2019-04-28T08:58:22.325Z,8.03
2019-04-28T08:59:35.420Z,2.27
2019-04-28T09:00:48.499Z,3.45
2019-04-28T09:02:01.566Z,2.55
2019-04-28T09:03:14.648Z,2.83
2019-04-28T09:04:27.717Z,3.87
2019-04-28T09:05:40.803Z,3.27
2019-04-28T09:06:53.892Z,3.27
2019-04-28T09:08:07.045Z,2.42
2019-04-28T09:09:21.389Z,2.70
2019-04-28T09:10:34.537Z,5.78
2019-04-28T09:11:47.628Z,3.55
2019-04-28T09:13:00.701Z,1.75
2019-04-28T09:14:13.768Z,4.17
2019-04-28T09:15:26.839Z,1.50
2019-04-28T09:16:39.932Z,3.35
2019-04-28T09:17:53.003Z,1.50
2019-04-28T09:19:06.072Z,4.03
2019-04-28T09:20:19.176Z,3.15
2019-04-28T09:21:32.244Z,4.05
2019-04-28T09:22:45.384Z,2.60
2019-04-28T09:23:58.472Z,1.92
2019-04-28T09:25:11.544Z,3.95
2019-04-28T09:26:25.610Z,8.50
2019-04-28T09:27:38.792Z,1.77
2019-04-28T09:28:51.956Z,3.85
2019-04-28T09:30:09.836Z,3.35
2019-04-28T09:31:23.009Z,3.60
2019-04-28T09:32:36.262Z,1.98
2019-04-28T09:33:49.463Z,1.52
2019-04-28T09:35:02.808Z,2.92
2019-04-28T09:36:15.860Z,3.70
2019-04-28T09:37:29.524Z,2.87
2019-04-28T09:38:42.624Z,1.47
2019-04-28T09:39:57.315Z,1.60
2019-04-28T09:41:10.424Z,1.25
2019-04-28T09:42:30.982Z,2.70
2019-04-28T09:43:56.489Z,2.10
2019-04-28T09:45:22.970Z,2.08
2019-04-28T09:46:38.377Z,1.95
2019-04-28T09:47:51.415Z,1.50
2019-04-28T09:49:04.480Z,3.25
2019-04-28T09:50:17.619Z,5.60
2019-04-28T09:51:30.644Z,3.00
2019-04-28T09:52:43.673Z,3.17
2019-04-28T09:53:56.715Z,3.08
2019-04-28T09:55:09.758Z,1.62
2019-04-28T09:56:22.777Z,3.83
2019-04-28T09:57:35.890Z,3.47
2019-04-28T09:58:49.114Z,1.45
2019-04-28T10:00:02.315Z,2.22
2019-04-28T10:01:15.364Z,3.27
2019-04-28T10:02:28.406Z,1.50
2019-04-28T10:03:41.431Z,3.22
2019-04-28T10:04:54.464Z,3.00
2019-04-28T10:06:07.556Z,1.65
2019-04-28T10:07:20.632Z,5.25
2019-04-28T10:08:36.398Z,2.40
2019-04-28T10:09:48.570Z,3.60
2019-04-28T10:11:01.663Z,1.95
2019-04-28T10:12:26.608Z,2.20
2019-04-28T10:13:29.523Z,2.58
2019-04-28T10:14:42.604Z,1.32
2019-04-28T10:15:55.680Z,1.07
2019-04-28T10:17:08.909Z,2.05
2019-04-28T10:18:21.978Z,1.62
2019-04-28T10:19:35.068Z,2.58
2019-04-28T10:20:48.202Z,2.95
2019-04-28T10:22:01.288Z,3.95
2019-04-28T10:23:14.400Z,4.10
2019-04-28T10:24:27.473Z,1.32
2019-04-28T10:25:40.568Z,0.70
2019-04-28T10:26:53.628Z,3.65
2019-04-28T10:28:06.827Z,2.25
2019-04-28T10:29:19.908Z,1.70
2019-04-28T10:30:33.277Z,0.82
2019-04-28T10:31:46.356Z,5.47
2019-04-28T10:32:59.432Z,1.52
2019-04-28T10:34:12.537Z,2.35
2019-04-28T10:35:25.606Z,2.50
2019-04-28T10:36:38.674Z,1.90
2019-04-28T10:37:51.755Z,1.45
2019-04-28T10:39:18.525Z,2.87
2019-04-28T10:40:36.635Z,4.87
2019-04-28T10:41:49.720Z,2.22
2019-04-28T10:43:02.936Z,1.98
2019-04-28T10:44:16.017Z,2.37
2019-04-28T10:45:30.756Z,1.27
2019-04-28T10:46:43.836Z,1.25
2019-04-28T10:47:56.913Z,2.83
2019-04-28T10:49:10.046Z,1.15
2019-04-28T10:50:23.144Z,2.80
2019-04-28T10:51:36.215Z,2.25
2019-04-28T10:52:49.304Z,2.85
2019-04-28T10:54:02.435Z,3.52
2019-04-28T10:55:15.549Z,3.02
2019-04-28T10:56:28.627Z,3.02
2019-04-28T10:57:41.717Z,2.70
2019-04-28T10:58:55.227Z,3.08
2019-04-28T11:00:08.892Z,1.77
2019-04-28T11:01:21.961Z,2.27
2019-04-28T11:02:35.028Z,1.00
2019-04-28T11:03:49.746Z,2.17
2019-04-28T11:05:08.935Z,1.62
2019-04-28T11:06:22.233Z,1.32
2019-04-28T11:07:35.382Z,1.02
2019-04-28T11:08:58.986Z,3.98
2019-04-28T11:10:13.697Z,2.77
2019-04-28T11:11:26.823Z,4.25
2019-04-28T11:12:39.960Z,2.30
2019-04-28T11:13:53.024Z,1.22
2019-04-28T11:15:08.116Z,3.77
2019-04-28T11:16:22.900Z,2.20
2019-04-28T11:17:35.997Z,2.90
2019-04-28T11:18:49.068Z,1.65
2019-04-28T11:20:02.147Z,2.10
2019-04-28T11:21:15.225Z,4.08
2019-04-28T11:22:28.328Z,2.40
2019-04-28T11:23:41.407Z,3.85
2019-04-28T11:24:54.476Z,1.90
2019-04-28T11:26:07.562Z,1.65
2019-04-28T11:27:20.727Z,1.60
2019-04-28T11:28:33.832Z,3.40
2019-04-28T11:29:46.904Z,2.90
2019-04-28T11:31:00.914Z,2.47
2019-04-28T11:32:14.776Z,2.80
2019-04-28T11:33:31.997Z,1.65
2019-04-28T11:34:58.639Z,1.77
2019-04-28T11:36:12.171Z,3.27
2019-04-28T11:37:25.256Z,1.85
2019-04-28T11:38:38.414Z,2.40
2019-04-28T11:39:51.929Z,3.70
2019-04-28T11:41:05.017Z,1.45
2019-04-28T11:42:18.119Z,2.12
2019-04-28T11:43:31.565Z,2.08
2019-04-28T11:44:44.631Z,1.67
2019-04-28T11:45:58.296Z,1.80
2019-04-28T11:47:13.101Z,3.22
2019-04-28T11:48:26.165Z,1.98
2019-04-28T11:49:39.238Z,3.62
2019-04-28T11:50:52.315Z,1.07
2019-04-28T11:52:06.077Z,1.70
2019-04-28T11:53:19.157Z,2.40
2019-04-28T11:54:32.233Z,3.45
2019-04-28T11:55:45.300Z,2.62
2019-04-28T11:56:58.395Z,3.10
2019-04-28T11:58:11.535Z,1.57
2019-04-28T11:59:24.778Z,1.92
2019-04-28T12:00:37.852Z,3.40
2019-04-28T12:01:50.932Z,1.72
2019-04-28T12:03:04.030Z,2.52
2019-04-28T12:04:17.485Z,1.67
2019-04-28T12:05:34.602Z,3.33
2019-04-28T12:06:46.977Z,2.77
2019-04-28T12:08:00.033Z,2.70
2019-04-28T12:09:23.618Z,3.42
2019-04-28T12:10:38.648Z,3.92
2019-04-28T12:11:55.923Z,2.35
2019-04-28T12:13:10.639Z,2.58
2019-04-28T12:14:27.913Z,2.75
2019-04-28T12:16:00.763Z,3.00
2019-04-28T12:17:31.564Z,2.95
2019-04-28T12:18:58.985Z,1.40
2019-04-28T12:20:17.787Z,2.25
2019-04-28T12:21:30.941Z,2.10
2019-04-28T12:22:44.087Z,1.50
2019-04-28T12:23:57.531Z,2.52
2019-04-28T12:25:10.599Z,3.77
2019-04-28T12:26:23.748Z,2.77
2019-04-28T12:27:36.966Z,2.95
2019-04-28T12:28:50.149Z,4.67
2019-04-28T12:30:03.478Z,2.65
2019-04-28T12:31:16.643Z,2.17
2019-04-28T12:32:29.760Z,2.42
2019-04-28T12:33:42.911Z,3.27
2019-04-28T12:34:56.001Z,2.98
2019-04-28T12:36:09.717Z,1.90
2019-04-28T12:37:22.799Z,2.62
2019-04-28T12:38:35.881Z,2.35
2019-04-28T12:39:48.999Z,3.62
2019-04-28T12:41:02.171Z,2.15
2019-04-28T12:42:15.252Z,1.47
2019-04-28T12:43:28.269Z,2.15
2019-04-28T12:44:41.279Z,3.92
2019-04-28T12:45:54.306Z,3.10
2019-04-28T12:47:07.392Z,1.65
2019-04-28T12:48:20.583Z,2.45
2019-04-28T12:49:35.453Z,2.12
2019-04-28T12:50:50.204Z,3.27
2019-04-28T12:52:03.540Z,3.83
2019-04-28T12:53:17.381Z,3.75
2019-04-28T12:54:32.093Z,3.02
2019-04-28T12:55:45.234Z,4.10
2019-04-28T12:56:58.307Z,2.70
2019-04-28T12:58:11.395Z,2.08
2019-04-28T12:59:26.110Z,3.40
2019-04-28T13:00:49.594Z,1.20
2019-04-28T13:02:05.542Z,3.60
2019-04-28T13:03:26.064Z,1.32
2019-04-28T13:04:49.496Z,2.22
2019-04-28T13:06:05.924Z,3.17
2019-04-28T13:07:19.298Z,4.58
2019-04-28T13:08:32.566Z,3.58
2019-04-28T13:09:45.740Z,2.72
2019-04-28T13:10:58.820Z,2.70
2019-04-28T13:12:11.898Z,4.12
2019-04-28T13:13:25.376Z,2.40
2019-04-28T13:14:38.632Z,2.55
2019-04-28T13:15:51.837Z,2.47
2019-04-28T13:17:05.016Z,4.40
2019-04-28T13:18:19.884Z,4.00
2019-04-28T13:19:33.118Z,3.30
2019-04-28T13:20:46.224Z,3.47
2019-04-28T13:21:59.401Z,4.28
2019-04-28T13:23:12.477Z,2.72
2019-04-28T13:24:25.555Z,4.25
2019-04-28T13:25:38.636Z,2.08
2019-04-28T13:26:52.330Z,1.95
2019-04-28T13:28:06.279Z,1.85
2019-04-28T13:29:19.745Z,4.22
2019-04-28T13:30:33.053Z,1.20
2019-04-28T13:31:46.154Z,3.62
2019-04-28T13:32:59.974Z,2.80
2019-04-28T13:34:14.692Z,3.30
2019-04-28T13:35:27.773Z,1.22
2019-04-28T13:36:40.865Z,2.02
2019-04-28T13:37:54.315Z,2.22
2019-04-28T13:39:13.013Z,3.33
2019-04-28T13:40:27.781Z,2.87
2019-04-28T13:41:41.434Z,2.25
2019-04-28T13:42:54.536Z,2.20
2019-04-28T13:44:09.255Z,2.65
2019-04-28T13:45:23.975Z,3.20
2019-04-28T13:46:37.118Z,2.58
2019-04-28T13:47:50.723Z,1.92
2019-04-28T13:49:05.670Z,3.17
2019-04-28T13:50:27.079Z,2.80
2019-04-28T13:51:40.237Z,3.42
2019-04-28T13:52:53.406Z,3.15
2019-04-28T13:54:08.528Z,2.22
2019-04-28T13:55:23.184Z,3.77
2019-04-28T13:56:36.230Z,2.50
2019-04-28T13:57:49.327Z,2.80
2019-04-28T13:59:04.217Z,3.08
2019-04-28T14:00:27.723Z,2.20
2019-04-28T14:01:45.960Z,3.17
2019-04-28T14:03:09.750Z,3.98
2019-04-28T14:04:30.448Z,2.05
2019-04-28T14:05:51.373Z,2.20
2019-04-28T14:07:04.866Z,2.62
2019-04-28T14:08:18.172Z,2.60
2019-04-28T14:09:31.276Z,3.98
2019-04-28T14:10:44.357Z,3.77
2019-04-28T14:11:57.504Z,1.82
2019-04-28T14:13:10.592Z,2.55
2019-04-28T14:14:23.676Z,5.17
2019-04-28T14:15:36.768Z,3.20
2019-04-28T14:16:49.847Z,2.00
2019-04-28T14:18:02.967Z,2.40
2019-04-28T14:19:16.081Z,3.52
2019-04-28T14:20:29.230Z,3.87
2019-04-28T14:21:42.348Z,2.55
2019-04-28T14:22:55.515Z,2.65
2019-04-28T14:24:09.145Z,1.87
2019-04-28T14:25:22.260Z,2.47
2019-04-28T14:26:35.353Z,3.15
2019-04-28T14:27:48.460Z,2.52
2019-04-28T14:29:01.668Z,3.35
2019-04-28T14:30:14.763Z,4.55
2019-04-28T14:31:27.943Z,3.58
2019-04-28T14:32:41.075Z,1.95
2019-04-28T14:33:54.150Z,2.22
2019-04-28T14:35:07.296Z,2.98
2019-04-28T14:36:20.541Z,1.67
2019-04-28T14:37:33.749Z,3.20
2019-04-28T14:38:46.952Z,1.70
2019-04-28T14:40:00.023Z,4.65
2019-04-28T14:41:13.110Z,3.37
2019-04-28T14:42:26.247Z,2.85
2019-04-28T14:43:39.383Z,1.98
2019-04-28T14:44:52.597Z,2.30
2019-04-28T14:46:05.746Z,1.82
2019-04-28T14:47:18.962Z,3.02
2019-04-28T14:48:32.202Z,3.25
2019-04-28T14:49:45.340Z,3.10
2019-04-28T14:50:58.494Z,3.33
2019-04-28T14:52:11.660Z,8.13
2019-04-28T14:53:25.039Z,2.58
2019-04-28T14:54:38.205Z,3.22
2019-04-28T14:55:51.397Z,3.17
2019-04-28T14:57:04.745Z,5.62
2019-04-28T14:58:17.877Z,3.10
2019-04-28T14:59:31.029Z,1.95
2019-04-28T15:01:02.275Z,1.75
2019-04-28T15:02:22.792Z,2.40
2019-04-28T15:03:37.545Z,3.47
2019-04-28T15:04:52.315Z,2.12
2019-04-28T15:06:07.084Z,3.47
2019-04-28T15:07:38.128Z,2.22
2019-04-28T15:09:09.860Z,2.83
2019-04-28T15:10:33.476Z,2.35
2019-04-28T15:11:48.297Z,3.00
2019-04-28T15:13:02.182Z,5.33
2019-04-28T15:14:15.356Z,3.10
2019-04-28T15:15:28.444Z,5.67
2019-04-28T15:16:41.560Z,2.85
2019-04-28T15:17:55.947Z,5.47
2019-04-28T15:19:09.114Z,3.60
2019-04-28T15:20:22.334Z,3.02
2019-04-28T15:21:35.746Z,4.40
2019-04-28T15:22:48.994Z,4.33
2019-04-28T15:24:02.195Z,1.67
2019-04-28T15:25:15.394Z,2.77
2019-04-28T15:26:28.659Z,3.65
2019-04-28T15:27:43.490Z,2.37
2019-04-28T15:28:56.713Z,3.65
2019-04-28T15:30:10.312Z,1.70
2019-04-28T15:31:23.527Z,3.00
2019-04-28T15:32:36.748Z,5.75
2019-04-28T15:33:50.069Z,2.40
2019-04-28T15:35:03.584Z,3.95
2019-04-28T15:36:16.775Z,2.65
2019-04-28T15:37:29.967Z,5.95
2019-04-28T15:38:44.642Z,1.77
2019-04-28T15:39:57.863Z,2.55
2019-04-28T15:41:21.305Z,2.47
2019-04-28T15:42:25.934Z,2.00
2019-04-28T15:43:39.279Z,13.00
2019-04-28T15:44:52.526Z,3.37
2019-04-28T15:46:05.726Z,4.92
2019-04-28T15:47:18.926Z,6.25
2019-04-28T15:48:32.145Z,1.95
2019-04-28T15:49:45.657Z,2.25
2019-04-28T15:50:58.883Z,2.45
2019-04-28T15:52:12.100Z,4.70
2019-04-28T15:53:25.290Z,2.25
2019-04-28T15:54:38.500Z,1.92
2019-04-28T15:56:02.566Z,2.90
2019-04-28T15:57:15.910Z,2.30
2019-04-28T15:58:29.902Z,3.08
2019-04-28T15:59:43.087Z,3.33
2019-04-28T16:00:56.305Z,3.10
2019-04-28T16:02:09.546Z,4.17
2019-04-28T16:03:23.308Z,4.72
2019-04-28T16:04:36.766Z,3.85
2019-04-28T16:05:50.010Z,21.60
2019-04-28T16:07:03.275Z,4.28
2019-04-28T16:08:16.459Z,4.33
2019-04-28T16:09:29.664Z,2.27
2019-04-28T16:10:43.146Z,6.50
2019-04-28T16:11:56.422Z,2.83
2019-04-28T16:13:09.820Z,4.12
2019-04-28T16:14:23.114Z,4.35
2019-04-28T16:15:36.785Z,17.85
2019-04-28T16:16:51.619Z,22.10
2019-04-28T16:18:04.916Z,17.15
2019-04-28T16:19:18.146Z,29.85
2019-04-28T16:20:31.359Z,59.55
2019-04-28T16:21:44.589Z,25.52
2019-04-28T16:22:57.916Z,6.12
2019-04-28T16:24:12.879Z,7.00
2019-04-28T16:25:26.912Z,3.40
2019-04-28T16:26:40.127Z,9.28
2019-04-28T16:27:53.339Z,9.55
2019-04-28T16:29:06.571Z,6.55
2019-04-28T16:30:19.779Z,3.77